Time;durP1;ratioP1;P1;durP2;ratioP2;P2;SDS_P1;SDS_P2;PMS_P1;PMS_P2;Temp;Humidity;BMP_temperature;BMP_pressure;BME280_temperature;BME280_humidity;BME280_pressure;Samples;Min_cycle;Max_cycle;Signal;HPM_P1;HPM_P2
2023/10/15 00:00:57;;;;;;;4.10;1.23;;;;;;;8.79;56.28;100157.31;10424316;28;20128;-61
2023/10/15 00:05:59;;;;;;;2.40;0.93;;;;;;;8.74;56.55;100154.06;10422440;28;20048;-61
2023/10/15 00:11:01;;;;;;;3.30;1.42;;;;;;;8.65;56.78;100146.69;10421803;28;20033;-61
2023/10/15 00:16:04;;;;;;;6.53;1.30;;;;;;;8.65;56.69;100152.75;10422246;28;20516;-61
2023/10/15 00:21:11;;;;;;;3.20;1.20;;;;;;;8.63;56.92;100156.34;10420703;28;20037;-61
2023/10/15 00:26:14;;;;;;;2.95;1.25;;;;;;;8.57;57.19;100151.41;10422750;28;20768;-61
2023/10/15 00:31:24;;;;;;;4.88;1.10;;;;;;;8.33;57.75;100152.59;10422836;28;20056;-61
2023/10/15 00:36:27;;;;;;;2.90;1.20;;;;;;;8.31;57.62;100146.59;10422322;28;20053;-61
2023/10/15 00:41:29;;;;;;;1.20;0.93;;;;;;;8.37;57.62;100147.16;10422868;28;20355;-61
2023/10/15 00:46:37;;;;;;;5.32;1.45;;;;;;;8.31;57.62;100146.59;10403525;28;20522;-62
2023/10/15 00:51:44;;;;;;;5.38;1.23;;;;;;;8.23;57.73;100146.13;10402187;28;20346;-60
2023/10/15 00:56:49;;;;;;;1.90;1.20;;;;;;;8.22;57.97;100142.66;10421545;28;20064;-61
2023/10/15 01:02:12;;;;;;;3.25;1.33;;;;;;;8.30;57.86;100129.28;10421167;28;20471;-61
2023/10/15 01:07:47;;;;;;;2.63;1.08;;;;;;;8.29;57.92;100125.84;10438422;28;20065;-61
2023/10/15 01:12:49;;;;;;;2.17;1.02;;;;;;;8.29;58.08;100125.84;10403815;28;20045;-61
2023/10/15 01:18:00;;;;;;;2.13;1.17;;;;;;;8.18;58.08;100122.06;10402715;28;20420;-61
2023/10/15 01:23:05;;;;;;;1.85;1.00;;;;;;;8.16;58.23;100121.28;10420255;28;20313;-60
2023/10/15 01:28:07;;;;;;;2.08;1.15;;;;;;;8.15;58.27;100130.84;10403425;28;20037;-61
2023/10/15 01:33:10;;;;;;;2.47;1.33;;;;;;;8.04;58.42;100125.25;10383437;28;20584;-61
2023/10/15 01:38:20;;;;;;;2.05;1.05;;;;;;;8.00;58.44;100124.56;10402612;28;20292;-61
2023/10/15 01:43:23;;;;;;;4.97;1.30;;;;;;;7.91;58.69;100121.53;10402728;28;20057;-61
2023/10/15 01:48:30;;;;;;;2.92;1.38;;;;;;;7.93;58.86;100120.56;10435331;28;20382;-61
2023/10/15 01:53:38;;;;;;;1.80;1.10;;;;;;;7.89;58.86;100115.56;10418745;28;20065;-61
2023/10/15 01:58:40;;;;;;;4.18;0.90;;;;;;;7.89;58.92;100108.59;10400969;28;20787;-61
2023/10/15 02:03:42;;;;;;;4.00;1.27;;;;;;;7.95;58.56;100117.88;10392481;28;20136;-61
2023/10/15 02:08:46;;;;;;;4.20;1.70;;;;;;;7.90;58.50;100125.91;10409839;28;20574;-61
2023/10/15 02:13:49;;;;;;;1.98;1.15;;;;;;;7.81;58.67;100123.69;10387523;28;20524;-60
2023/10/15 02:18:51;;;;;;;2.78;0.93;;;;;;;7.73;58.81;100123.19;10416024;28;20049;-60
2023/10/15 02:23:53;;;;;;;2.20;0.88;;;;;;;7.61;59.39;100118.53;10402780;28;20817;-61
2023/10/15 02:28:55;;;;;;;6.38;1.52;;;;;;;7.69;59.00;100121.66;10453198;28;20041;-60
2023/10/15 02:33:57;;;;;;;3.40;1.30;;;;;;;7.71;59.16;100124.22;10432133;28;20158;-60
2023/10/15 02:38:59;;;;;;;2.00;1.23;;;;;;;7.64;59.09;100123.63;10435350;28;20288;-61
2023/10/15 02:44:12;;;;;;;3.65;1.20;;;;;;;7.66;59.09;100120.94;10416203;28;20275;-60
2023/10/15 02:49:18;;;;;;;2.78;1.02;;;;;;;7.64;59.11;100123.63;10434449;28;20122;-61
2023/10/15 02:54:36;;;;;;;1.55;1.10;;;;;;;7.56;59.22;100125.72;10432754;28;20060;-60
2023/10/15 02:59:38;;;;;;;3.40;1.10;;;;;;;7.52;59.36;100129.38;10432353;28;20060;-60
2023/10/15 03:04:43;;;;;;;4.30;1.30;;;;;;;7.54;59.54;100117.16;10429779;28;20061;-60
2023/10/15 03:09:51;;;;;;;4.93;1.30;;;;;;;7.48;59.51;100111.34;10427110;28;20574;-61
2023/10/15 03:14:54;;;;;;;1.83;1.05;;;;;;;7.49;59.46;100123.47;10426701;28;20053;-60
2023/10/15 03:20:10;;;;;;;1.77;0.93;;;;;;;7.47;59.72;100127.91;10426601;28;20525;-60
2023/10/15 03:25:16;;;;;;;3.28;1.48;;;;;;;7.47;59.54;100114.88;10388124;28;20048;-61
2023/10/15 03:30:24;;;;;;;3.42;1.20;;;;;;;7.46;59.70;100119.25;10406807;28;20246;-61
2023/10/15 03:35:38;;;;;;;1.52;1.20;;;;;;;7.49;59.64;100118.28;10426462;28;20044;-60
2023/10/15 03:40:49;;;;;;;2.45;1.17;;;;;;;7.38;60.05;100129.13;10408167;28;20048;-60
2023/10/15 03:45:51;;;;;;;2.38;1.15;;;;;;;7.22;60.34;100135.91;10424923;28;20037;-61
2023/10/15 03:50:55;;;;;;;3.20;1.23;;;;;;;7.06;60.83;100137.47;10427131;28;20045;-60
2023/10/15 03:56:01;;;;;;;1.70;1.10;;;;;;;7.02;60.80;100134.13;10426541;28;20045;-61
2023/10/15 04:06:13;;;;;;;1.95;1.13;;;;;;;7.08;60.76;100135.66;10407208;28;20037;-60
2023/10/15 04:11:29;;;;;;;4.25;1.60;;;;;;;7.01;60.80;100137.66;10390179;28;20099;-60
2023/10/15 04:16:31;;;;;;;3.35;1.63;;;;;;;6.98;60.78;100137.78;10408200;28;20471;-60
2023/10/15 04:21:40;;;;;;;5.35;1.40;;;;;;;7.00;60.80;100129.91;10406231;28;20063;-60
2023/10/15 04:26:42;;;;;;;2.60;1.42;;;;;;;7.03;60.74;100135.84;10405992;28;20055;-60
2023/10/15 04:31:51;;;;;;;2.65;1.25;;;;;;;6.98;60.96;100134.31;10421601;28;20052;-61
2023/10/15 04:36:57;;;;;;;4.53;1.10;;;;;;;6.97;61.11;100130.06;10405496;28;20060;-60
2023/10/15 04:42:01;;;;;;;3.05;1.17;;;;;;;6.95;61.12;100134.47;10405293;28;20504;-60
2023/10/15 04:47:06;;;;;;;6.68;1.15;;;;;;;6.86;61.27;100132.25;10425212;28;20865;-60
2023/10/15 04:52:14;;;;;;;3.67;1.15;;;;;;;6.80;61.44;100127.28;10421044;28;20140;-60
2023/10/15 04:57:16;;;;;;;2.10;1.20;;;;;;;6.70;61.76;100128.59;10421296;28;20040;-60
2023/10/15 05:02:18;;;;;;;1.70;1.00;;;;;;;6.66;61.88;100129.63;10404521;28;20048;-61
2023/10/15 05:07:20;;;;;;;1.73;1.10;;;;;;;6.67;61.84;100123.53;10407061;28;20134;-60
2023/10/15 05:12:22;;;;;;;3.15;1.35;;;;;;;6.68;61.66;100128.66;10437689;28;20413;-61
2023/10/15 05:17:24;;;;;;;3.40;1.42;;;;;;;6.74;61.68;100131.00;10422139;28;20053;-61
2023/10/15 05:22:26;;;;;;;2.65;1.48;;;;;;;6.72;61.50;100145.81;10437395;28;20532;-61
2023/10/15 05:27:28;;;;;;;5.25;1.45;;;;;;;6.56;62.13;100157.72;10402757;28;20524;-61
2023/10/15 05:32:30;;;;;;;2.25;1.00;;;;;;;6.68;61.98;100164.19;10420589;28;20516;-61
2023/10/15 05:37:31;;;;;;;4.05;1.50;;;;;;;6.64;62.41;100154.81;10400596;28;20048;-61
2023/10/15 05:42:35;;;;;;;4.65;1.55;;;;;;;6.81;62.02;100145.44;10403127;28;20096;-61
2023/10/15 05:47:37;;;;;;;3.47;1.45;;;;;;;7.05;61.83;100143.56;10420468;28;20450;-61
2023/10/15 05:52:39;;;;;;;4.78;1.65;;;;;;;7.20;61.41;100151.56;10411368;28;20081;-61
2023/10/15 05:57:43;;;;;;;6.90;1.30;;;;;;;7.08;61.52;100166.88;10410767;28;20055;-61
2023/10/15 06:02:46;;;;;;;6.30;1.42;;;;;;;6.92;61.80;100166.63;10411502;28;20052;-61
2023/10/15 06:07:54;;;;;;;5.95;1.10;;;;;;;6.86;61.87;100176.44;10428028;28;20451;-61
2023/10/15 06:12:57;;;;;;;4.72;1.42;;;;;;;6.86;62.05;100181.63;10409231;28;20041;-61
2023/10/15 06:17:58;;;;;;;5.38;1.17;;;;;;;7.02;61.95;100177.53;10429623;28;20051;-61
2023/10/15 06:23:04;;;;;;;1.70;1.00;;;;;;;7.16;61.54;100181.22;10429609;28;20127;-61
2023/10/15 06:28:06;;;;;;;4.13;1.10;;;;;;;7.44;61.20;100185.25;10426623;28;20053;-61
2023/10/15 06:33:08;;;;;;;4.72;1.48;;;;;;;7.60;60.82;100189.75;10423657;28;20145;-61
2023/10/15 06:38:10;;;;;;;3.13;1.42;;;;;;;7.70;60.65;100192.78;10404204;28;20048;-61
2023/10/15 06:43:15;;;;;;;2.22;1.30;;;;;;;7.73;60.37;100193.50;10432712;28;20118;-61
2023/10/15 06:48:18;;;;;;;4.55;1.42;;;;;;;7.80;60.31;100207.09;10405567;28;20055;-61
2023/10/15 06:53:20;;;;;;;7.28;1.63;;;;;;;7.75;60.41;100209.88;10426639;28;20490;-61
2023/10/15 06:58:22;;;;;;;3.85;1.60;;;;;;;7.64;60.55;100208.66;10427483;28;20045;-61
2023/10/15 07:03:24;;;;;;;2.65;1.30;;;;;;;7.68;60.46;100218.88;10407661;28;20497;-61
2023/10/15 07:08:26;;;;;;;4.82;1.58;;;;;;;7.86;60.25;100218.09;10426931;28;20492;-61
2023/10/15 07:13:28;;;;;;;5.50;1.52;;;;;;;8.25;59.82;100223.31;10427766;28;20041;-61
2023/10/15 07:18:33;;;;;;;5.50;1.58;;;;;;;8.51;59.21;100211.66;10426630;28;20485;-61
2023/10/15 07:23:35;;;;;;;4.35;2.08;;;;;;;8.56;59.13;100214.91;10422006;28;20059;-61
2023/10/15 07:28:37;;;;;;;7.13;1.95;;;;;;;8.71;58.76;100224.59;10421823;28;20039;-61
2023/10/15 07:33:39;;;;;;;5.13;2.30;;;;;;;8.78;58.72;100228.63;10419740;28;20056;-61
2023/10/15 07:38:41;;;;;;;4.70;1.73;;;;;;;9.41;58.24;100232.44;10425727;28;20060;-61
2023/10/15 07:43:43;;;;;;;2.00;1.17;;;;;;;9.47;57.32;100230.38;10389547;28;20423;-61
2023/10/15 07:48:45;;;;;;;2.97;1.15;;;;;;;9.43;57.67;100236.69;10422803;28;20270;-61
2023/10/15 07:53:47;;;;;;;2.92;1.45;;;;;;;9.33;57.45;100250.25;10420565;28;20481;-61
2023/10/15 07:58:50;;;;;;;6.55;1.63;;;;;;;9.50;57.43;100240.66;10402666;28;20041;-61
2023/10/15 08:03:52;;;;;;;2.33;1.08;;;;;;;9.88;56.28;100257.03;10425339;28;20545;-61
2023/10/15 08:08:54;;;;;;;3.47;1.40;;;;;;;9.91;56.34;100263.88;10408888;28;20045;-61
2023/10/15 08:13:57;;;;;;;4.72;1.30;;;;;;;9.82;56.05;100264.34;10411971;28;20045;-61
2023/10/15 08:18:59;;;;;;;3.33;1.50;;;;;;;9.88;56.54;100264.03;10409409;28;20199;-61
2023/10/15 08:24:01;;;;;;;4.20;1.30;;;;;;;9.88;56.00;100271.84;10407849;28;20041;-61
2023/10/15 08:29:03;;;;;;;3.42;1.55;;;;;;;9.99;55.24;100272.97;10416455;28;20120;-62
2023/10/15 08:34:05;;;;;;;5.95;1.50;;;;;;;10.56;54.60;100279.53;10395909;28;20099;-61
2023/10/15 08:39:07;;;;;;;4.65;1.80;;;;;;;11.49;53.55;100278.63;10418949;28;20040;-61
2023/10/15 08:44:18;;;;;;;5.57;1.75;;;;;;;11.66;52.52;100283.72;10396211;28;20395;-61
2023/10/15 08:49:24;;;;;;;2.22;1.27;;;;;;;11.89;52.13;100288.44;10396812;28;20049;-61
2023/10/15 08:54:27;;;;;;;3.53;1.13;;;;;;;11.93;51.72;100279.47;10409697;28;21273;-62
2023/10/15 08:59:32;;;;;;;3.92;1.75;;;;;;;11.52;51.60;100275.81;10401122;28;20449;-61
2023/10/15 09:04:35;;;;;;;4.63;1.58;;;;;;;11.14;51.70;100278.03;10421779;28;20535;-61
2023/10/15 09:09:37;;;;;;;1.45;1.10;;;;;;;11.23;51.48;100287.97;10422294;28;20049;-61
2023/10/15 09:14:48;;;;;;;1.67;1.20;;;;;;;11.67;50.80;100292.41;10422045;28;20056;-62
2023/10/15 09:19:52;;;;;;;4.90;1.73;;;;;;;12.38;49.68;100281.13;10405779;28;20051;-61
2023/10/15 09:24:54;;;;;;;1.75;1.23;;;;;;;11.80;50.52;100298.66;10416097;28;20053;-61
2023/10/15 09:30:18;;;;;;;3.00;1.45;;;;;;;11.66;48.93;100296.00;10423735;28;20053;-61
2023/10/15 09:35:21;;;;;;;3.92;1.30;;;;;;;12.06;49.95;100301.41;10419132;28;20112;-61
2023/10/15 09:40:30;;;;;;;2.85;1.30;;;;;;;12.28;48.85;100290.47;10413839;28;20049;-61
2023/10/15 09:45:32;;;;;;;1.08;0.95;;;;;;;12.02;48.94;100302.53;10422287;28;20047;-62
2023/10/15 09:50:38;;;;;;;2.38;1.17;;;;;;;11.99;49.04;100325.44;10391281;28;20060;-61
2023/10/15 09:55:41;;;;;;;0.75;0.75;;;;;;;11.90;48.43;100310.28;10385830;28;20094;-61
2023/10/15 10:06:15;;;;;;;1.02;0.93;;;;;;;11.99;47.65;100310.56;10410659;28;20049;-61
2023/10/15 10:11:51;;;;;;;1.25;1.05;;;;;;;12.46;46.42;100307.72;10397209;28;20484;-61
2023/10/15 10:16:53;;;;;;;0.85;0.80;;;;;;;12.40;47.68;100315.13;10415346;28;20065;-61
2023/10/15 10:21:56;;;;;;;2.22;1.10;;;;;;;12.32;47.64;100312.97;10384966;28;20041;-61
2023/10/15 10:27:07;;;;;;;2.28;1.10;;;;;;;12.40;47.83;100315.97;10412131;28;20051;-61
2023/10/15 10:32:13;;;;;;;2.40;1.45;;;;;;;12.00;49.42;100333.22;10436828;28;20069;-61
2023/10/15 10:37:23;;;;;;;1.67;0.80;;;;;;;11.00;52.11;100364.28;10422813;28;20053;-61
2023/10/15 10:42:26;;;;;;;2.30;1.00;;;;;;;10.44;53.87;100369.91;10409215;28;20049;-61
2023/10/15 10:47:33;;;;;;;0.90;0.85;;;;;;;10.07;55.46;100370.16;10400530;28;20038;-61
2023/10/15 10:52:36;;;;;;;1.02;0.93;;;;;;;9.88;55.87;100379.81;10428393;28;20126;-61
2023/10/15 10:57:41;;;;;;;0.82;0.75;;;;;;;10.02;56.65;100376.50;10424397;28;20048;-61
2023/10/15 11:02:43;;;;;;;1.20;1.10;;;;;;;10.16;55.57;100376.66;10426342;28;20041;-61
2023/10/15 11:07:47;;;;;;;2.47;1.30;;;;;;;10.22;56.16;100368.50;10421603;28;20041;-61
2023/10/15 11:12:50;;;;;;;4.53;1.50;;;;;;;10.38;56.41;100374.63;10424040;28;20095;-61
2023/10/15 11:17:56;;;;;;;2.20;1.20;;;;;;;10.52;56.22;100375.59;10402932;28;20037;-61
2023/10/15 11:23:03;;;;;;;3.50;1.67;;;;;;;10.46;56.66;100377.72;10425341;28;20057;-61
2023/10/15 11:28:11;;;;;;;2.45;1.10;;;;;;;10.38;57.06;100364.16;10417596;28;20649;-61
2023/10/15 11:33:17;;;;;;;1.60;1.02;;;;;;;10.34;57.48;100365.25;10386084;28;20098;-61
2023/10/15 11:38:20;;;;;;;1.10;0.95;;;;;;;10.41;57.63;100356.19;10395228;28;20053;-61
2023/10/15 11:43:22;;;;;;;1.30;0.80;;;;;;;10.71;56.52;100367.63;10422263;28;20124;-61
2023/10/15 11:48:25;;;;;;;1.00;0.90;;;;;;;10.95;57.01;100371.53;10402615;28;20513;-61
2023/10/15 11:53:28;;;;;;;1.67;1.00;;;;;;;10.86;56.23;100372.06;10420842;28;20052;-61
2023/10/15 11:58:33;;;;;;;4.53;1.58;;;;;;;10.61;56.06;100363.81;10399894;28;20053;-61
2023/10/15 12:03:36;;;;;;;9.60;3.42;;;;;;;10.62;56.44;100359.44;10428086;28;20382;-61
2023/10/15 12:08:38;;;;;;;4.20;1.85;;;;;;;10.62;56.39;100356.81;10421150;28;20037;-61
2023/10/15 12:13:41;;;;;;;6.18;2.00;;;;;;;10.57;56.24;100364.03;10417398;28;20041;-61
2023/10/15 12:18:43;;;;;;;6.22;1.75;;;;;;;10.62;56.88;100367.28;10412660;28;20499;-61
2023/10/15 12:23:45;;;;;;;4.65;1.45;;;;;;;10.93;55.47;100356.88;10432971;28;20222;-61
2023/10/15 12:28:47;;;;;;;3.17;1.58;;;;;;;11.07;55.14;100349.97;10416968;28;20524;-61
2023/10/15 12:33:49;;;;;;;3.70;1.60;;;;;;;11.18;55.00;100352.84;10408318;28;20144;-61
2023/10/15 12:38:51;;;;;;;1.95;1.10;;;;;;;11.47;53.23;100358.22;10407714;28;20053;-61
2023/10/15 12:43:58;;;;;;;3.63;1.10;;;;;;;11.92;52.91;100352.97;10395267;28;20068;-61
2023/10/15 12:49:03;;;;;;;0.63;0.63;;;;;;;12.30;51.63;100361.19;10421615;28;20052;-61
2023/10/15 12:54:05;;;;;;;2.65;0.75;;;;;;;12.59;50.81;100366.38;10421008;28;20488;-61
2023/10/15 12:59:07;;;;;;;1.95;0.70;;;;;;;12.64;50.15;100368.72;10420253;28;20500;-61
2023/10/15 13:04:09;;;;;;;1.52;0.80;;;;;;;12.62;50.08;100363.56;10401693;28;20043;-61
2023/10/15 13:09:19;;;;;;;2.72;0.88;;;;;;;12.70;49.82;100366.56;10420217;28;20051;-61
2023/10/15 13:14:21;;;;;;;2.00;0.83;;;;;;;12.41;50.47;100370.13;10416400;28;20040;-61
2023/10/15 13:19:22;;;;;;;0.65;0.63;;;;;;;12.39;50.58;100372.00;10419026;28;20051;-61
2023/10/15 13:24:24;;;;;;;2.70;1.02;;;;;;;12.17;50.05;100389.06;10415623;28;20044;-61
2023/10/15 13:29:28;;;;;;;1.63;0.90;;;;;;;11.88;49.26;100390.75;10417586;28;20056;-61
2023/10/15 13:34:30;;;;;;;2.20;1.00;;;;;;;12.14;50.43;100411.91;10397291;28;20064;-61
2023/10/15 13:39:32;;;;;;;1.27;1.00;;;;;;;12.08;51.48;100412.28;10399758;28;20041;-61
2023/10/15 13:44:34;;;;;;;1.77;0.70;;;;;;;11.84;51.74;100416.31;10417465;28;20089;-61
2023/10/15 13:49:37;;;;;;;2.95;1.15;;;;;;;11.74;52.24;100414.28;10418367;28;20060;-61
2023/10/15 13:54:39;;;;;;;1.73;0.90;;;;;;;11.58;52.39;100421.34;10415928;28;20044;-61
2023/10/15 13:59:41;;;;;;;1.75;1.13;;;;;;;11.59;52.45;100420.38;10383416;28;20044;-61
2023/10/15 14:04:43;;;;;;;0.70;0.70;;;;;;;11.48;53.28;100422.78;10413362;28;20212;-61
2023/10/15 14:09:45;;;;;;;2.17;1.15;;;;;;;11.26;53.30;100426.56;10420939;28;20333;-61
2023/10/15 14:14:48;;;;;;;2.05;1.10;;;;;;;10.98;53.66;100423.72;10424510;28;20052;-61
2023/10/15 14:19:51;;;;;;;2.85;1.00;;;;;;;10.89;54.31;100433.84;10426568;28;20045;-61
2023/10/15 14:24:53;;;;;;;2.90;0.88;;;;;;;10.62;54.22;100436.13;10424862;28;20179;-61
2023/10/15 14:29:55;;;;;;;1.33;1.00;;;;;;;10.48;54.43;100449.09;10421812;28;20049;-61
2023/10/15 14:34:59;;;;;;;4.25;1.17;;;;;;;10.30;54.72;100455.22;10416436;28;20053;-61
2023/10/15 14:40:01;;;;;;;1.75;1.13;;;;;;;10.33;54.57;100455.94;10420285;28;20513;-61
2023/10/15 14:45:05;;;;;;;1.90;1.00;;;;;;;10.24;54.80;100456.38;10414275;28;20180;-61
2023/10/15 14:50:10;;;;;;;1.77;1.10;;;;;;;10.12;54.98;100466.59;10431523;28;20223;-61
2023/10/15 14:55:16;;;;;;;2.67;1.30;;;;;;;9.95;55.06;100470.03;10415196;28;20300;-61
2023/10/15 15:00:18;;;;;;;5.75;1.75;;;;;;;9.82;55.36;100483.75;10418671;28;20578;-61
2023/10/15 15:05:20;;;;;;;2.22;1.20;;;;;;;9.87;55.67;100485.22;10412254;28;20045;-61
2023/10/15 15:10:22;;;;;;;2.42;1.45;;;;;;;9.84;55.15;100487.16;10416651;28;20090;-61
2023/10/15 15:15:24;;;;;;;1.98;1.15;;;;;;;9.84;55.68;100488.00;10410390;28;20080;-61
2023/10/15 15:20:26;;;;;;;1.83;1.05;;;;;;;10.01;55.67;100484.56;10413401;28;20052;-61
2023/10/15 15:25:28;;;;;;;1.90;1.08;;;;;;;10.23;55.28;100485.22;10408546;28;20451;-61
2023/10/15 15:30:32;;;;;;;2.55;1.10;;;;;;;9.95;56.00;100493.53;10420063;28;20060;-61
2023/10/15 15:35:34;;;;;;;1.30;1.20;;;;;;;9.56;56.52;100498.84;10421001;28;20508;-61
2023/10/15 15:40:41;;;;;;;4.10;1.42;;;;;;;9.46;56.81;100504.59;10418661;28;20091;-61
2023/10/15 15:45:42;;;;;;;2.35;1.20;;;;;;;9.37;57.24;100510.22;10415505;28;20071;-61
2023/10/15 15:50:45;;;;;;;1.70;1.23;;;;;;;9.39;57.27;100516.22;10404132;28;20248;-62
2023/10/15 15:55:48;;;;;;;3.00;1.88;;;;;;;9.35;57.25;100515.53;10415971;28;20486;-62
2023/10/15 16:00:50;;;;;;;4.95;1.83;;;;;;;9.22;57.47;100509.16;10419819;28;20045;-61
2023/10/15 16:06:01;;;;;;;3.58;1.98;;;;;;;9.07;57.60;100516.81;10419034;28;20076;-61
2023/10/15 16:11:08;;;;;;;3.08;1.30;;;;;;;8.92;57.70;100515.72;10416876;28;20420;-61
2023/10/15 16:16:10;;;;;;;4.90;1.55;;;;;;;8.97;57.42;100524.22;10418051;28;20053;-61
2023/10/15 16:21:12;;;;;;;1.67;1.10;;;;;;;8.79;57.42;100525.84;10399290;28;20221;-61
2023/10/15 16:26:14;;;;;;;1.75;1.08;;;;;;;8.72;57.23;100531.41;10416891;28;20051;-61
2023/10/15 16:31:16;;;;;;;2.33;1.20;;;;;;;8.65;57.14;100541.22;10420470;28;20040;-61
2023/10/15 16:36:18;;;;;;;1.55;0.98;;;;;;;8.50;57.24;100544.50;10416084;28;20045;-61
2023/10/15 16:41:20;;;;;;;1.20;1.10;;;;;;;8.38;57.46;100545.00;10401905;28;20045;-61
2023/10/15 16:46:22;;;;;;;1.15;0.98;;;;;;;8.21;57.92;100551.78;10415990;28;20130;-60
2023/10/15 16:51:24;;;;;;;1.58;1.20;;;;;;;8.14;57.85;100560.78;10419635;28;20483;-61
2023/10/15 16:56:28;;;;;;;2.33;1.23;;;;;;;8.15;57.94;100567.66;10378068;28;20193;-61
2023/10/15 17:01:30;;;;;;;2.33;1.40;;;;;;;8.07;58.28;100564.50;10403711;28;20055;-61
2023/10/15 17:06:32;;;;;;;3.85;1.60;;;;;;;8.00;58.33;100572.53;10396946;28;20285;-61
2023/10/15 17:11:35;;;;;;;2.50;1.35;;;;;;;7.97;58.21;100574.44;10394849;28;20048;-61
2023/10/15 17:16:37;;;;;;;3.47;1.42;;;;;;;7.91;58.60;100575.53;10398157;28;20052;-60
2023/10/15 17:21:39;;;;;;;3.78;1.92;;;;;;;7.84;58.64;100584.47;10394132;28;20094;-61
2023/10/15 17:26:43;;;;;;;4.03;1.95;;;;;;;7.80;58.79;100593.31;10415023;28;20037;-61
2023/10/15 17:31:45;;;;;;;1.80;1.35;;;;;;;7.72;59.03;100591.88;10418584;28;20068;-61
2023/10/15 17:36:48;;;;;;;1.95;1.45;;;;;;;7.55;59.38;100609.91;10415854;28;20618;-61
2023/10/15 17:42:06;;;;;;;2.85;1.80;;;;;;;7.49;59.70;100610.13;10417702;28;20053;-61
2023/10/15 17:47:08;;;;;;;4.05;1.50;;;;;;;7.46;59.74;100611.09;10413515;28;20116;-61
2023/10/15 17:52:11;;;;;;;2.67;1.73;;;;;;;7.37;60.19;100619.19;10418143;28;20079;-61
2023/10/15 17:57:17;;;;;;;4.10;1.80;;;;;;;7.29;60.36;100613.41;10416057;28;20080;-61
2023/10/15 18:02:22;;;;;;;3.53;1.70;;;;;;;7.28;60.46;100627.34;10415829;28;20045;-61
2023/10/15 18:07:28;;;;;;;3.33;1.75;;;;;;;7.18;60.49;100632.00;10397959;28;20523;-61
2023/10/15 18:12:33;;;;;;;4.10;1.70;;;;;;;7.04;60.70;100638.63;10385145;28;20102;-61
2023/10/15 18:17:39;;;;;;;3.60;1.58;;;;;;;6.94;60.65;100650.19;10396717;28;20178;-61
2023/10/15 18:22:46;;;;;;;3.17;1.50;;;;;;;6.84;61.05;100651.41;10415387;28;20041;-62
2023/10/15 18:27:49;;;;;;;2.53;1.70;;;;;;;6.70;61.13;100645.81;10411914;28;20144;-61
2023/10/15 18:32:53;;;;;;;4.78;2.67;;;;;;;6.57;61.54;100657.50;10416368;28;20456;-61
2023/10/15 18:37:57;;;;;;;4.18;2.08;;;;;;;6.45;61.88;100661.31;10417597;28;20221;-61
2023/10/15 18:42:59;;;;;;;4.30;1.92;;;;;;;6.34;62.13;100666.88;10418453;28;20509;-61
2023/10/15 18:48:01;;;;;;;3.53;1.55;;;;;;;6.26;62.04;100665.41;10419770;28;20037;-61
2023/10/15 18:53:03;;;;;;;3.55;1.90;;;;;;;6.32;62.21;100671.28;10403255;28;20142;-61
2023/10/15 18:58:06;;;;;;;7.13;2.63;;;;;;;6.31;62.07;100679.94;10423631;28;20052;-61
2023/10/15 19:03:08;;;;;;;4.55;2.28;;;;;;;6.29;62.25;100671.34;10427124;28;20049;-61
2023/10/15 19:08:11;;;;;;;3.28;1.90;;;;;;;6.30;62.05;100688.66;10439349;28;20040;-61
2023/10/15 19:13:13;;;;;;;3.47;2.15;;;;;;;6.21;62.27;100696.69;10407359;28;20049;-61
2023/10/15 19:18:16;;;;;;;3.28;1.88;;;;;;;6.20;62.52;100691.53;10422479;28;20539;-61
2023/10/15 19:23:18;;;;;;;5.10;1.80;;;;;;;6.24;62.57;100691.41;10439995;28;20131;-61
2023/10/15 19:28:20;;;;;;;2.80;1.67;;;;;;;6.22;62.16;100697.53;10422648;28;20053;-61
2023/10/15 19:33:22;;;;;;;4.05;1.85;;;;;;;6.10;62.46;100700.50;10398321;28;20497;-61
2023/10/15 19:38:26;;;;;;;3.95;1.88;;;;;;;6.08;62.53;100702.28;10382696;28;20056;-61
2023/10/15 19:43:30;;;;;;;3.70;1.60;;;;;;;6.06;62.52;100699.72;10378273;28;20519;-61
2023/10/15 19:48:33;;;;;;;3.17;1.50;;;;;;;6.00;62.92;100699.06;10383838;28;20085;-61
2023/10/15 19:53:35;;;;;;;2.53;1.73;;;;;;;5.87;63.19;100708.09;10383148;28;20107;-61
2023/10/15 19:58:37;;;;;;;2.95;1.50;;;;;;;5.81;63.33;100700.47;10381380;28;20046;-61
2023/10/15 20:03:40;;;;;;;2.85;1.63;;;;;;;5.72;63.86;100708.50;10381493;28;20044;-61
2023/10/15 20:09:09;;;;;;;3.15;1.63;;;;;;;5.65;63.60;100715.63;10397122;28;20119;-61
2023/10/15 20:14:11;;;;;;;2.53;1.52;;;;;;;5.60;63.52;100727.88;10382178;28;20407;-61
2023/10/15 20:19:13;;;;;;;3.15;1.80;;;;;;;5.56;63.49;100718.47;10383156;28;20037;-61
2023/10/15 20:24:15;;;;;;;3.10;1.73;;;;;;;5.56;63.29;100723.66;10382216;28;20420;-61
2023/10/15 20:29:17;;;;;;;2.50;1.35;;;;;;;5.59;63.36;100726.19;10381711;28;20045;-60
2023/10/15 20:34:19;;;;;;;4.05;1.98;;;;;;;5.57;63.46;100725.38;10378747;28;20409;-60
2023/10/15 20:39:21;;;;;;;3.03;1.70;;;;;;;5.43;63.46;100738.69;10381803;28;20443;-60
2023/10/15 20:44:24;;;;;;;3.88;1.77;;;;;;;5.39;63.39;100737.06;10382809;28;20414;-60
2023/10/15 20:49:27;;;;;;;4.68;2.83;;;;;;;5.40;63.52;100732.72;10381523;28;20050;-61
2023/10/15 20:54:29;;;;;;;6.10;3.42;;;;;;;5.40;63.59;100746.56;10380054;28;20544;-61
2023/10/15 20:59:31;;;;;;;4.93;2.45;;;;;;;5.39;63.51;100731.88;10381279;28;20060;-60
2023/10/15 21:04:33;;;;;;;4.22;2.13;;;;;;;5.30;63.45;100739.91;10380769;28;20545;-60
2023/10/15 21:09:35;;;;;;;3.38;1.80;;;;;;;5.30;63.50;100741.63;10382064;28;20052;-61
2023/10/15 21:14:38;;;;;;;2.95;1.40;;;;;;;5.21;63.63;100741.84;10380415;28;20555;-60
2023/10/15 21:19:40;;;;;;;4.18;1.60;;;;;;;5.11;63.62;100745.56;10381606;28;20053;-60
2023/10/15 21:24:42;;;;;;;3.53;1.90;;;;;;;5.06;63.64;100745.69;10379487;28;20042;-60
2023/10/15 21:29:44;;;;;;;1.52;1.27;;;;;;;5.05;63.44;100738.81;10375669;28;20041;-61
2023/10/15 21:34:46;;;;;;;2.42;1.33;;;;;;;4.94;63.62;100733.03;10417212;28;20063;-60
2023/10/15 21:39:48;;;;;;;3.20;1.80;;;;;;;4.97;63.67;100732.09;10420255;28;20212;-60
2023/10/15 21:44:50;;;;;;;5.70;1.50;;;;;;;4.94;63.58;100724.41;10423454;28;20045;-61
2023/10/15 21:49:53;;;;;;;4.32;1.75;;;;;;;4.91;63.65;100721.88;10420890;28;20477;-61
2023/10/15 21:54:54;;;;;;;2.03;1.20;;;;;;;4.85;63.57;100729.78;10421441;28;20041;-61
2023/10/15 21:59:57;;;;;;;3.22;1.60;;;;;;;4.88;63.50;100732.31;10420016;28;20462;-60
2023/10/15 22:05:02;;;;;;;4.50;1.40;;;;;;;4.77;63.55;100735.16;10403903;28;20044;-61
2023/10/15 22:10:07;;;;;;;2.67;1.42;;;;;;;4.77;63.94;100734.31;10419432;28;20546;-61
2023/10/15 22:15:10;;;;;;;1.85;1.35;;;;;;;4.74;63.64;100729.22;10422903;28;20045;-60
2023/10/15 22:20:19;;;;;;;4.85;1.40;;;;;;;4.78;63.79;100726.50;10419665;28;20045;-60
2023/10/15 22:25:21;;;;;;;2.42;1.40;;;;;;;4.68;63.86;100732.78;10401799;28;20067;-60
2023/10/15 22:30:27;;;;;;;2.67;1.30;;;;;;;4.47;64.05;100730.69;10421349;28;20055;-61
2023/10/15 22:35:29;;;;;;;5.38;1.40;;;;;;;4.50;64.28;100731.47;10430189;28;20076;-61
2023/10/15 22:40:31;;;;;;;1.55;1.20;;;;;;;4.59;64.15;100718.31;10411890;28;20048;-60
2023/10/15 22:45:36;;;;;;;1.90;1.27;;;;;;;4.51;63.74;100717.63;10430716;28;20041;-60
2023/10/15 22:50:38;;;;;;;1.38;1.02;;;;;;;4.41;64.02;100718.69;10408648;28;20189;-61
2023/10/15 22:55:44;;;;;;;2.05;1.30;;;;;;;4.29;63.65;100721.56;10429336;28;20524;-60
2023/10/15 23:00:49;;;;;;;1.63;1.05;;;;;;;4.25;63.83;100716.50;10428589;28;20846;-60
2023/10/15 23:05:52;;;;;;;1.70;1.17;;;;;;;4.28;63.83;100712.09;10426175;28;20487;-60
2023/10/15 23:10:55;;;;;;;2.00;1.20;;;;;;;4.31;63.91;100718.97;10427588;28;20892;-60
2023/10/15 23:15:57;;;;;;;3.17;1.63;;;;;;;4.32;63.83;100724.09;10427746;28;20076;-61
2023/10/15 23:21:07;;;;;;;2.55;1.48;;;;;;;4.25;64.22;100725.09;10426838;28;20037;-60
2023/10/15 23:26:12;;;;;;;4.38;1.50;;;;;;;4.19;64.34;100729.59;10426723;28;20041;-60
2023/10/15 23:31:14;;;;;;;3.05;1.45;;;;;;;4.22;64.27;100732.09;10392986;28;20052;-60
2023/10/15 23:36:19;;;;;;;2.83;1.27;;;;;;;4.27;64.51;100727.69;10441170;28;20048;-60
2023/10/15 23:41:21;;;;;;;2.28;1.23;;;;;;;4.29;64.30;100720.75;10426282;28;20516;-61